Stations

Station Name Date Time Temperature Relative Humidity Precipitation Wind Speed Wind Direction Create Custom Report Daily Report Hourly Report
Aberdeen VTcr 2018-20-04 9:15 51.3 55.22 0.00
Bee Lake 2018-26-04 14:00 62.3 79.72 0.37 9.73 W
Brooksville 2018-26-04 14:00 63.1 77.55 0.02 11.73 SW
Brooksville2 VT 2018-26-04 14:00 63.0 72.52 1.54
Brown Loam Exp Stn VT 2018-26-04 14:00 61.4 71.71 0.74
COOP Stoneville 2018-26-04 8:00 57.0 93 0.42
Jackson Co 2018-26-04 14:00 74.4 57.79 0.00 5.62 NW
Lyon 2018-26-04 14:00 61.1 83.50 0.44 11.81 NNW
Macon VT 2018-26-04 14:00 63.4 69.89 1.12
Mound Bayou 2018-26-04 14:00 62.7 76.88 0.34 6.07 NW
Olive Branch2 VTso 2018-20-04 9:45 55.7 40.96 0.00
Onward VT 2018-26-04 14:00 61.5 75.86 0.24
Pontotoc AWS COOP 2018-26-04 14:00 59.5 92.09 1.30
Prairie 2018-26-04 14:00 57.0 100.00 0.61 9.36 W
Sidon 2018-26-04 14:00 62.9 74.85 0.62 3.93 N
Stockett Farm 2018-26-04 14:00 65.6 64.94 0.17 2.17 SSW
Stoneville AWS 2018-26-04 14:00 62.3 75.85 0.25 3.88 NW
Stoneville SW 2018-26-04 14:00 62.0 81.70 0.22 13.01 NW
Stoneville W 2018-26-04 14:00 62.5 75.82 0.23 11.33 NNW
Thighman 2018-26-04 14:00 62.6 75.75 0.52 12.24 NNW
Tippo VT 2018-26-04 14:00 61.5 82.60 1.36
Tribbett 2018-26-04 14:00 62.5 77.33 0.39 10.60 WNW
Verona 2018-26-04 14:00 61.6 90.40 0.96 8.17 WSW
Verona VTso 2018-20-04 9:30 53.2 45.41 0.00